sensor_id;sensor_type;location;lat;lon;timestamp;pressure;altitude;pressure_sealevel;temperature;humidity
37202;BME280;37799;52.390;6.136;2023-10-13T00:00:26;101099.69;;;16.87;100.00
37202;BME280;37799;52.390;6.136;2023-10-13T00:02:55;101100.91;;;16.80;100.00
37202;BME280;37799;52.390;6.136;2023-10-13T00:05:21;101096.38;;;16.84;100.00
37202;BME280;37799;52.390;6.136;2023-10-13T00:07:46;101093.97;;;16.79;100.00
37202;BME280;37799;52.390;6.136;2023-10-13T00:10:12;101092.50;;;16.73;100.00
37202;BME280;37799;52.390;6.136;2023-10-13T00:12:37;101090.50;;;16.78;100.00
37202;BME280;37799;52.390;6.136;2023-10-13T00:15:04;101091.34;;;16.79;100.00
37202;BME280;37799;52.390;6.136;2023-10-13T00:17:30;101089.88;;;16.73;100.00
37202;BME280;37799;52.390;6.136;2023-10-13T00:19:57;101082.88;;;16.74;100.00
37202;BME280;37799;52.390;6.136;2023-10-13T00:22:25;101083.28;;;16.84;100.00
37202;BME280;37799;52.390;6.136;2023-10-13T00:24:56;101098.16;;;16.83;100.00
37202;BME280;37799;52.390;6.136;2023-10-13T00:27:24;101081.44;;;16.86;100.00
37202;BME280;37799;52.390;6.136;2023-10-13T00:29:55;101080.59;;;16.85;100.00
37202;BME280;37799;52.390;6.136;2023-10-13T00:32:42;101077.50;;;16.77;100.00
37202;BME280;37799;52.390;6.136;2023-10-13T00:35:09;101077.66;;;16.74;100.00
37202;BME280;37799;52.390;6.136;2023-10-13T00:37:36;101082.53;;;16.82;100.00
37202;BME280;37799;52.390;6.136;2023-10-13T00:40:08;101075.59;;;16.80;100.00
37202;BME280;37799;52.390;6.136;2023-10-13T00:42:43;101068.44;;;16.84;100.00
37202;BME280;37799;52.390;6.136;2023-10-13T00:45:17;101072.75;;;16.85;100.00
37202;BME280;37799;52.390;6.136;2023-10-13T00:47:44;101069.22;;;16.86;100.00
37202;BME280;37799;52.390;6.136;2023-10-13T00:50:22;101066.75;;;16.83;100.00
37202;BME280;37799;52.390;6.136;2023-10-13T00:52:49;101068.34;;;16.68;100.00
37202;BME280;37799;52.390;6.136;2023-10-13T00:55:18;101076.56;;;16.78;100.00
37202;BME280;37799;52.390;6.136;2023-10-13T00:57:43;101065.50;;;16.73;100.00
37202;BME280;37799;52.390;6.136;2023-10-13T01:00:12;101061.97;;;16.74;100.00
37202;BME280;37799;52.390;6.136;2023-10-13T01:02:45;101061.19;;;16.72;100.00
37202;BME280;37799;52.390;6.136;2023-10-13T01:05:19;101053.50;;;16.69;100.00
37202;BME280;37799;52.390;6.136;2023-10-13T01:07:46;101053.19;;;16.75;100.00
37202;BME280;37799;52.390;6.136;2023-10-13T01:10:18;101046.97;;;16.77;100.00
37202;BME280;37799;52.390;6.136;2023-10-13T01:12:44;101052.50;;;16.71;100.00
37202;BME280;37799;52.390;6.136;2023-10-13T01:15:11;101041.19;;;16.71;100.00
37202;BME280;37799;52.390;6.136;2023-10-13T01:17:37;101046.13;;;16.77;100.00
37202;BME280;37799;52.390;6.136;2023-10-13T01:20:03;101037.00;;;16.86;100.00
37202;BME280;37799;52.390;6.136;2023-10-13T01:22:30;101034.66;;;16.79;100.00
37202;BME280;37799;52.390;6.136;2023-10-13T01:24:57;101039.03;;;16.79;100.00
37202;BME280;37799;52.390;6.136;2023-10-13T01:27:36;101029.50;;;16.78;100.00
37202;BME280;37799;52.390;6.136;2023-10-13T01:30:04;101030.59;;;16.74;100.00
37202;BME280;37799;52.390;6.136;2023-10-13T01:32:38;101033.28;;;16.72;100.00
37202;BME280;37799;52.390;6.136;2023-10-13T01:35:10;101025.75;;;16.84;100.00
37202;BME280;37799;52.390;6.136;2023-10-13T01:37:36;101013.19;;;16.73;100.00
37202;BME280;37799;52.390;6.136;2023-10-13T01:40:01;101022.75;;;16.74;100.00
37202;BME280;37799;52.390;6.136;2023-10-13T01:42:26;101007.28;;;16.69;100.00
37202;BME280;37799;52.390;6.136;2023-10-13T01:44:53;101004.44;;;16.74;100.00
37202;BME280;37799;52.390;6.136;2023-10-13T01:47:30;101000.81;;;16.76;100.00
37202;BME280;37799;52.390;6.136;2023-10-13T01:49:55;101000.44;;;16.84;100.00
37202;BME280;37799;52.390;6.136;2023-10-13T01:52:23;100998.50;;;16.70;100.00
37202;BME280;37799;52.390;6.136;2023-10-13T01:54:50;100991.50;;;16.71;100.00
37202;BME280;37799;52.390;6.136;2023-10-13T01:57:16;100985.22;;;16.75;100.00
37202;BME280;37799;52.390;6.136;2023-10-13T01:59:47;100990.34;;;16.76;100.00
37202;BME280;37799;52.390;6.136;2023-10-13T02:02:13;100979.06;;;16.76;100.00
37202;BME280;37799;52.390;6.136;2023-10-13T02:04:39;100970.59;;;16.71;100.00
37202;BME280;37799;52.390;6.136;2023-10-13T02:07:14;100964.28;;;16.75;100.00
37202;BME280;37799;52.390;6.136;2023-10-13T02:09:40;100962.91;;;16.85;100.00
37202;BME280;37799;52.390;6.136;2023-10-13T02:12:08;100958.22;;;16.74;100.00
37202;BME280;37799;52.390;6.136;2023-10-13T02:14:34;100966.41;;;16.67;100.00
37202;BME280;37799;52.390;6.136;2023-10-13T02:17:02;100955.00;;;16.69;100.00
37202;BME280;37799;52.390;6.136;2023-10-13T02:19:42;100951.22;;;16.75;100.00
37202;BME280;37799;52.390;6.136;2023-10-13T02:22:12;100944.53;;;16.69;100.00
37202;BME280;37799;52.390;6.136;2023-10-13T02:24:49;100942.22;;;16.80;100.00
37202;BME280;37799;52.390;6.136;2023-10-13T02:27:17;100943.50;;;16.89;100.00
37202;BME280;37799;52.390;6.136;2023-10-13T02:29:42;100939.53;;;16.82;100.00
37202;BME280;37799;52.390;6.136;2023-10-13T02:32:11;100932.91;;;16.75;100.00
37202;BME280;37799;52.390;6.136;2023-10-13T02:34:46;100935.06;;;16.84;100.00
37202;BME280;37799;52.390;6.136;2023-10-13T02:37:11;100930.44;;;16.72;100.00
37202;BME280;37799;52.390;6.136;2023-10-13T02:39:38;100927.84;;;16.72;100.00
37202;BME280;37799;52.390;6.136;2023-10-13T02:42:09;100923.69;;;16.68;100.00
37202;BME280;37799;52.390;6.136;2023-10-13T02:44:41;100918.91;;;16.76;100.00
37202;BME280;37799;52.390;6.136;2023-10-13T02:47:11;100919.22;;;16.87;100.00
37202;BME280;37799;52.390;6.136;2023-10-13T02:49:39;100914.44;;;16.78;100.00
37202;BME280;37799;52.390;6.136;2023-10-13T02:52:11;100915.22;;;16.80;100.00
37202;BME280;37799;52.390;6.136;2023-10-13T02:54:40;100919.06;;;16.90;100.00
37202;BME280;37799;52.390;6.136;2023-10-13T02:57:15;100913.06;;;16.88;100.00
37202;BME280;37799;52.390;6.136;2023-10-13T02:59:44;100915.59;;;16.90;100.00
37202;BME280;37799;52.390;6.136;2023-10-13T03:02:14;100910.69;;;16.84;100.00
37202;BME280;37799;52.390;6.136;2023-10-13T03:04:48;100903.44;;;16.89;100.00
37202;BME280;37799;52.390;6.136;2023-10-13T03:07:14;100909.22;;;16.78;100.00
37202;BME280;37799;52.390;6.136;2023-10-13T03:09:41;100898.16;;;16.73;100.00
37202;BME280;37799;52.390;6.136;2023-10-13T03:12:15;100901.69;;;16.72;100.00
37202;BME280;37799;52.390;6.136;2023-10-13T03:14:40;100888.63;;;16.72;100.00
37202;BME280;37799;52.390;6.136;2023-10-13T03:17:06;100886.31;;;16.83;100.00
37202;BME280;37799;52.390;6.136;2023-10-13T03:19:34;100879.09;;;16.71;100.00
37202;BME280;37799;52.390;6.136;2023-10-13T03:22:03;100870.56;;;16.66;100.00
37202;BME280;37799;52.390;6.136;2023-10-13T03:24:36;100868.69;;;16.69;100.00
37202;BME280;37799;52.390;6.136;2023-10-13T03:27:02;100865.16;;;16.70;100.00
37202;BME280;37799;52.390;6.136;2023-10-13T03:29:39;100851.25;;;16.70;100.00
37202;BME280;37799;52.390;6.136;2023-10-13T03:32:15;100852.34;;;16.64;100.00
37202;BME280;37799;52.390;6.136;2023-10-13T03:34:41;100847.13;;;16.64;100.00
37202;BME280;37799;52.390;6.136;2023-10-13T03:37:25;100834.53;;;16.72;100.00
37202;BME280;37799;52.390;6.136;2023-10-13T03:40:12;100828.47;;;16.55;100.00
37202;BME280;37799;52.390;6.136;2023-10-13T03:42:53;100828.13;;;16.61;100.00
37202;BME280;37799;52.390;6.136;2023-10-13T03:45:38;100819.91;;;16.51;100.00
37202;BME280;37799;52.390;6.136;2023-10-13T03:48:16;100810.16;;;16.55;100.00
37202;BME280;37799;52.390;6.136;2023-10-13T03:50:52;100801.25;;;16.59;100.00
37202;BME280;37799;52.390;6.136;2023-10-13T03:53:39;100800.47;;;16.57;100.00
37202;BME280;37799;52.390;6.136;2023-10-13T03:56:21;100801.19;;;16.43;100.00
37202;BME280;37799;52.390;6.136;2023-10-13T03:59:04;100804.56;;;16.45;100.00
37202;BME280;37799;52.390;6.136;2023-10-13T04:01:32;100797.41;;;16.48;100.00
37202;BME280;37799;52.390;6.136;2023-10-13T04:04:11;100790.66;;;16.44;100.00
37202;BME280;37799;52.390;6.136;2023-10-13T04:06:38;100786.00;;;16.49;100.00
37202;BME280;37799;52.390;6.136;2023-10-13T04:09:12;100778.34;;;16.46;100.00
37202;BME280;37799;52.390;6.136;2023-10-13T04:12:07;100761.91;;;16.44;100.00
37202;BME280;37799;52.390;6.136;2023-10-13T04:14:44;100753.81;;;16.49;100.00
37202;BME280;37799;52.390;6.136;2023-10-13T04:17:29;100744.38;;;16.46;100.00
37202;BME280;37799;52.390;6.136;2023-10-13T04:19:59;100742.69;;;16.45;100.00
37202;BME280;37799;52.390;6.136;2023-10-13T04:22:31;100738.81;;;16.52;100.00
37202;BME280;37799;52.390;6.136;2023-10-13T04:25:11;100727.84;;;16.46;100.00
37202;BME280;37799;52.390;6.136;2023-10-13T04:27:55;100723.38;;;16.48;100.00
37202;BME280;37799;52.390;6.136;2023-10-13T04:33:27;100721.81;;;16.61;100.00
37202;BME280;37799;52.390;6.136;2023-10-13T04:36:02;100702.91;;;16.56;100.00
37202;BME280;37799;52.390;6.136;2023-10-13T04:38:39;100689.22;;;16.51;100.00
37202;BME280;37799;52.390;6.136;2023-10-13T04:41:21;100685.25;;;16.44;100.00
37202;BME280;37799;52.390;6.136;2023-10-13T04:43:49;100681.63;;;16.46;100.00
37202;BME280;37799;52.390;6.136;2023-10-13T04:46:21;100672.78;;;16.49;100.00
37202;BME280;37799;52.390;6.136;2023-10-13T04:49:06;100665.78;;;16.49;100.00
37202;BME280;37799;52.390;6.136;2023-10-13T04:51:56;100661.81;;;16.42;100.00
37202;BME280;37799;52.390;6.136;2023-10-13T04:54:41;100655.16;;;16.52;100.00
37202;BME280;37799;52.390;6.136;2023-10-13T04:57:14;100655.16;;;16.52;100.00
37202;BME280;37799;52.390;6.136;2023-10-13T04:59:50;100633.41;;;16.52;100.00
37202;BME280;37799;52.390;6.136;2023-10-13T05:02:34;100642.81;;;16.39;100.00
37202;BME280;37799;52.390;6.136;2023-10-13T05:07:31;100633.06;;;16.42;100.00
37202;BME280;37799;52.390;6.136;2023-10-13T05:10:16;100623.69;;;16.38;100.00
37202;BME280;37799;52.390;6.136;2023-10-13T05:13:00;100622.00;;;16.37;100.00
37202;BME280;37799;52.390;6.136;2023-10-13T05:15:48;100615.72;;;16.41;100.00
37202;BME280;37799;52.390;6.136;2023-10-13T05:18:32;100596.50;;;16.42;100.00
37202;BME280;37799;52.390;6.136;2023-10-13T05:21:17;100600.69;;;16.45;100.00
37202;BME280;37799;52.390;6.136;2023-10-13T05:24:01;100598.75;;;16.48;100.00
37202;BME280;37799;52.390;6.136;2023-10-13T05:26:45;100592.69;;;16.64;100.00
37202;BME280;37799;52.390;6.136;2023-10-13T05:29:29;100597.34;;;16.43;100.00
37202;BME280;37799;52.390;6.136;2023-10-13T05:32:13;100595.00;;;16.21;100.00
37202;BME280;37799;52.390;6.136;2023-10-13T05:34:57;100600.69;;;16.29;100.00
37202;BME280;37799;52.390;6.136;2023-10-13T05:37:41;100587.00;;;16.24;100.00
37202;BME280;37799;52.390;6.136;2023-10-13T05:40:25;100565.25;;;16.23;100.00
37202;BME280;37799;52.390;6.136;2023-10-13T05:43:09;100561.81;;;16.23;100.00
37202;BME280;37799;52.390;6.136;2023-10-13T05:46:00;100579.94;;;16.26;100.00
37202;BME280;37799;52.390;6.136;2023-10-13T05:48:44;100561.63;;;16.26;100.00
37202;BME280;37799;52.390;6.136;2023-10-13T05:51:31;100561.31;;;16.32;100.00
37202;BME280;37799;52.390;6.136;2023-10-13T05:54:12;100569.75;;;16.37;100.00
37202;BME280;37799;52.390;6.136;2023-10-13T05:59:44;100580.91;;;16.41;100.00
37202;BME280;37799;52.390;6.136;2023-10-13T06:02:27;100570.34;;;16.42;100.00
37202;BME280;37799;52.390;6.136;2023-10-13T06:05:12;100569.44;;;16.43;100.00
37202;BME280;37799;52.390;6.136;2023-10-13T06:07:57;100577.75;;;16.66;100.00
37202;BME280;37799;52.390;6.136;2023-10-13T06:10:41;100564.31;;;16.73;100.00
37202;BME280;37799;52.390;6.136;2023-10-13T06:13:26;100580.16;;;16.86;100.00
37202;BME280;37799;52.390;6.136;2023-10-13T06:16:12;100572.22;;;16.88;100.00
37202;BME280;37799;52.390;6.136;2023-10-13T06:18:57;100565.88;;;17.07;100.00
37202;BME280;37799;52.390;6.136;2023-10-13T06:21:42;100571.09;;;17.07;100.00
37202;BME280;37799;52.390;6.136;2023-10-13T06:24:27;100573.59;;;17.25;100.00
37202;BME280;37799;52.390;6.136;2023-10-13T06:27:11;100569.16;;;17.11;100.00
37202;BME280;37799;52.390;6.136;2023-10-13T06:29:55;100574.94;;;17.32;100.00
37202;BME280;37799;52.390;6.136;2023-10-13T06:32:21;100565.50;;;17.44;100.00
37202;BME280;37799;52.390;6.136;2023-10-13T06:34:59;100576.38;;;17.22;100.00
37202;BME280;37799;52.390;6.136;2023-10-13T06:37:40;100572.84;;;17.23;100.00
37202;BME280;37799;52.390;6.136;2023-10-13T06:40:11;100565.47;;;17.29;100.00
37202;BME280;37799;52.390;6.136;2023-10-13T06:42:50;100558.59;;;17.13;100.00
37202;BME280;37799;52.390;6.136;2023-10-13T06:45:15;100564.09;;;17.08;100.00
37202;BME280;37799;52.390;6.136;2023-10-13T06:47:42;100579.94;;;17.21;100.00
37202;BME280;37799;52.390;6.136;2023-10-13T06:50:13;100568.69;;;17.19;100.00
37202;BME280;37799;52.390;6.136;2023-10-13T06:52:45;100568.31;;;17.10;100.00
37202;BME280;37799;52.390;6.136;2023-10-13T06:55:11;100561.34;;;16.95;100.00
37202;BME280;37799;52.390;6.136;2023-10-13T06:57:45;100561.72;;;17.03;100.00
37202;BME280;37799;52.390;6.136;2023-10-13T07:00:12;100550.41;;;17.03;100.00
37202;BME280;37799;52.390;6.136;2023-10-13T07:02:52;100550.19;;;17.07;100.00
37202;BME280;37799;52.390;6.136;2023-10-13T07:05:18;100556.53;;;17.18;100.00
37202;BME280;37799;52.390;6.136;2023-10-13T07:07:44;100547.00;;;17.17;100.00
37202;BME280;37799;52.390;6.136;2023-10-13T07:10:10;100555.22;;;17.10;100.00
37202;BME280;37799;52.390;6.136;2023-10-13T07:12:39;100557.66;;;17.14;100.00
37202;BME280;37799;52.390;6.136;2023-10-13T07:15:09;100547.19;;;17.14;100.00
37202;BME280;37799;52.390;6.136;2023-10-13T07:17:43;100547.03;;;17.31;100.00
37202;BME280;37799;52.390;6.136;2023-10-13T07:20:10;100539.19;;;17.31;100.00
37202;BME280;37799;52.390;6.136;2023-10-13T07:22:53;100526.03;;;17.32;100.00
37202;BME280;37799;52.390;6.136;2023-10-13T07:25:32;100518.25;;;17.31;100.00
37202;BME280;37799;52.390;6.136;2023-10-13T07:28:04;100514.56;;;17.35;100.00
37202;BME280;37799;52.390;6.136;2023-10-13T07:30:30;100514.38;;;17.38;100.00
37202;BME280;37799;52.390;6.136;2023-10-13T07:33:05;100509.59;;;17.45;100.00
37202;BME280;37799;52.390;6.136;2023-10-13T07:35:31;100507.66;;;17.48;100.00
37202;BME280;37799;52.390;6.136;2023-10-13T07:38:00;100494.75;;;17.45;100.00
37202;BME280;37799;52.390;6.136;2023-10-13T07:40:26;100501.78;;;17.59;100.00
37202;BME280;37799;52.390;6.136;2023-10-13T07:42:55;100491.94;;;17.48;100.00
37202;BME280;37799;52.390;6.136;2023-10-13T07:45:36;100485.78;;;17.49;100.00
37202;BME280;37799;52.390;6.136;2023-10-13T07:48:06;100474.06;;;17.55;100.00
37202;BME280;37799;52.390;6.136;2023-10-13T07:50:44;100469.59;;;17.57;100.00
37202;BME280;37799;52.390;6.136;2023-10-13T07:53:11;100460.34;;;17.65;100.00
37202;BME280;37799;52.390;6.136;2023-10-13T07:55:48;100463.38;;;17.74;100.00
37202;BME280;37799;52.390;6.136;2023-10-13T07:58:21;100461.09;;;17.82;100.00
37202;BME280;37799;52.390;6.136;2023-10-13T08:00:50;100463.69;;;17.96;100.00
37202;BME280;37799;52.390;6.136;2023-10-13T08:03:20;100468.03;;;17.97;100.00
37202;BME280;37799;52.390;6.136;2023-10-13T08:06:00;100464.34;;;18.14;100.00
37202;BME280;37799;52.390;6.136;2023-10-13T08:08:33;100451.31;;;18.26;100.00
37202;BME280;37799;52.390;6.136;2023-10-13T08:11:08;100456.75;;;18.23;100.00
37202;BME280;37799;52.390;6.136;2023-10-13T08:13:37;100448.69;;;18.26;100.00
37202;BME280;37799;52.390;6.136;2023-10-13T08:16:02;100453.09;;;18.53;100.00
37202;BME280;37799;52.390;6.136;2023-10-13T08:18:35;100444.81;;;18.59;100.00
37202;BME280;37799;52.390;6.136;2023-10-13T08:21:02;100456.09;;;18.74;100.00
37202;BME280;37799;52.390;6.136;2023-10-13T08:23:32;100449.22;;;18.85;100.00
37202;BME280;37799;52.390;6.136;2023-10-13T08:26:25;100448.28;;;18.99;100.00
37202;BME280;37799;52.390;6.136;2023-10-13T08:29:09;100450.94;;;19.25;100.00
37202;BME280;37799;52.390;6.136;2023-10-13T08:31:46;100448.75;;;19.31;100.00
37202;BME280;37799;52.390;6.136;2023-10-13T08:34:31;100447.81;;;19.32;100.00
37202;BME280;37799;52.390;6.136;2023-10-13T08:37:10;100418.81;;;19.34;100.00
37202;BME280;37799;52.390;6.136;2023-10-13T08:40:05;100441.09;;;19.28;100.00
37202;BME280;37799;52.390;6.136;2023-10-13T08:42:38;100437.50;;;19.29;100.00
37202;BME280;37799;52.390;6.136;2023-10-13T08:45:16;100435.19;;;19.25;100.00
37202;BME280;37799;52.390;6.136;2023-10-13T08:47:57;100423.53;;;19.03;100.00
37202;BME280;37799;52.390;6.136;2023-10-13T08:50:34;100428.56;;;18.94;100.00
37202;BME280;37799;52.390;6.136;2023-10-13T08:53:30;100424.16;;;18.94;100.00
37202;BME280;37799;52.390;6.136;2023-10-13T08:58:36;100425.09;;;19.06;100.00
37202;BME280;37799;52.390;6.136;2023-10-13T09:01:26;100417.53;;;19.14;100.00
37202;BME280;37799;52.390;6.136;2023-10-13T09:03:58;100408.63;;;19.17;100.00
37202;BME280;37799;52.390;6.136;2023-10-13T09:06:47;100400.44;;;19.21;100.00
37202;BME280;37799;52.390;6.136;2023-10-13T09:09:29;100400.75;;;19.29;100.00
37202;BME280;37799;52.390;6.136;2023-10-13T09:12:02;100408.75;;;19.28;100.00
37202;BME280;37799;52.390;6.136;2023-10-13T09:14:36;100396.53;;;19.27;100.00
37202;BME280;37799;52.390;6.136;2023-10-13T09:17:06;100406.13;;;19.15;100.00
37202;BME280;37799;52.390;6.136;2023-10-13T09:20:07;100417.75;;;19.11;100.00
37202;BME280;37799;52.390;6.136;2023-10-13T09:25:29;100395.50;;;19.04;100.00
37202;BME280;37799;52.390;6.136;2023-10-13T09:28:03;100384.91;;;19.18;100.00
37202;BME280;37799;52.390;6.136;2023-10-13T09:30:49;100386.38;;;19.22;100.00
37202;BME280;37799;52.390;6.136;2023-10-13T09:33:22;100399.38;;;19.11;100.00
37202;BME280;37799;52.390;6.136;2023-10-13T09:35:58;100397.19;;;19.05;100.00
37202;BME280;37799;52.390;6.136;2023-10-13T09:38:25;100391.94;;;19.05;100.00
37202;BME280;37799;52.390;6.136;2023-10-13T09:40:53;100402.22;;;19.08;100.00
37202;BME280;37799;52.390;6.136;2023-10-13T09:43:23;100378.09;;;19.03;100.00
37202;BME280;37799;52.390;6.136;2023-10-13T09:45:50;100368.44;;;19.03;100.00
37202;BME280;37799;52.390;6.136;2023-10-13T09:48:37;100381.84;;;18.86;100.00
37202;BME280;37799;52.390;6.136;2023-10-13T09:51:13;100389.19;;;18.94;100.00
37202;BME280;37799;52.390;6.136;2023-10-13T09:53:40;100376.41;;;18.89;100.00
37202;BME280;37799;52.390;6.136;2023-10-13T09:56:18;100370.31;;;18.89;100.00
37202;BME280;37799;52.390;6.136;2023-10-13T09:58:50;100362.75;;;18.97;100.00
37202;BME280;37799;52.390;6.136;2023-10-13T10:01:24;100366.75;;;19.02;100.00
37202;BME280;37799;52.390;6.136;2023-10-13T10:04:13;100362.97;;;19.06;100.00
37202;BME280;37799;52.390;6.136;2023-10-13T10:06:53;100362.34;;;19.03;100.00
37202;BME280;37799;52.390;6.136;2023-10-13T10:09:18;100362.34;;;19.03;100.00
37202;BME280;37799;52.390;6.136;2023-10-13T10:12:16;100358.56;;;19.07;100.00
37202;BME280;37799;52.390;6.136;2023-10-13T10:17:29;100349.31;;;19.14;100.00
37202;BME280;37799;52.390;6.136;2023-10-13T10:19:58;100357.38;;;19.24;100.00
37202;BME280;37799;52.390;6.136;2023-10-13T10:22:31;100341.00;;;19.20;100.00
37202;BME280;37799;52.390;6.136;2023-10-13T10:25:03;100340.50;;;19.28;100.00
37202;BME280;37799;52.390;6.136;2023-10-13T10:27:30;100332.69;;;19.26;100.00
37202;BME280;37799;52.390;6.136;2023-10-13T10:29:56;100323.69;;;19.30;100.00
37202;BME280;37799;52.390;6.136;2023-10-13T10:32:36;100313.28;;;19.29;100.00
37202;BME280;37799;52.390;6.136;2023-10-13T10:35:08;100319.78;;;19.36;100.00
37202;BME280;37799;52.390;6.136;2023-10-13T10:37:40;100312.50;;;19.39;100.00
37202;BME280;37799;52.390;6.136;2023-10-13T10:40:15;100312.50;;;19.39;100.00
37202;BME280;37799;52.390;6.136;2023-10-13T10:43:12;100308.41;;;19.61;100.00
37202;BME280;37799;52.390;6.136;2023-10-13T10:45:46;100312.28;;;19.68;100.00
37202;BME280;37799;52.390;6.136;2023-10-13T10:48:13;100306.00;;;19.58;100.00
37202;BME280;37799;52.390;6.136;2023-10-13T10:50:53;100295.50;;;19.58;100.00
37202;BME280;37799;52.390;6.136;2023-10-13T10:53:22;100286.00;;;19.68;100.00
37202;BME280;37799;52.390;6.136;2023-10-13T10:56:10;100278.97;;;19.68;100.00
37202;BME280;37799;52.390;6.136;2023-10-13T10:58:48;100266.44;;;19.72;100.00
37202;BME280;37799;52.390;6.136;2023-10-13T11:01:20;100263.09;;;19.70;100.00
37202;BME280;37799;52.390;6.136;2023-10-13T11:04:13;100261.78;;;19.99;100.00
37202;BME280;37799;52.390;6.136;2023-10-13T11:06:54;100262.81;;;20.21;100.00
37202;BME280;37799;52.390;6.136;2023-10-13T11:09:29;100254.34;;;20.28;100.00
37202;BME280;37799;52.390;6.136;2023-10-13T11:12:12;100268.34;;;20.40;100.00
37202;BME280;37799;52.390;6.136;2023-10-13T11:14:42;100260.50;;;20.51;100.00
37202;BME280;37799;52.390;6.136;2023-10-13T11:17:18;100254.19;;;20.54;100.00
37202;BME280;37799;52.390;6.136;2023-10-13T11:19:49;100244.28;;;20.57;100.00
37202;BME280;37799;52.390;6.136;2023-10-13T11:22:16;100245.09;;;20.80;100.00
37202;BME280;37799;52.390;6.136;2023-10-13T11:25:04;100238.16;;;20.79;100.00
37202;BME280;37799;52.390;6.136;2023-10-13T11:27:37;100229.44;;;20.90;100.00
37202;BME280;37799;52.390;6.136;2023-10-13T11:30:15;100221.88;;;21.08;100.00
37202;BME280;37799;52.390;6.136;2023-10-13T11:32:45;100228.34;;;21.15;100.00
37202;BME280;37799;52.390;6.136;2023-10-13T11:35:12;100216.59;;;21.19;100.00
37202;BME280;37799;52.390;6.136;2023-10-13T11:37:46;100222.94;;;21.16;100.00
37202;BME280;37799;52.390;6.136;2023-10-13T11:40:21;100216.34;;;21.22;100.00
37202;BME280;37799;52.390;6.136;2023-10-13T11:43:06;100219.22;;;21.19;100.00
37202;BME280;37799;52.390;6.136;2023-10-13T11:45:38;100210.25;;;21.21;100.00
37202;BME280;37799;52.390;6.136;2023-10-13T11:48:10;100194.00;;;21.16;100.00
37202;BME280;37799;52.390;6.136;2023-10-13T11:50:39;100191.22;;;21.18;100.00
37202;BME280;37799;52.390;6.136;2023-10-13T11:53:07;100190.66;;;21.14;100.00
37202;BME280;37799;52.390;6.136;2023-10-13T11:55:33;100188.47;;;21.19;100.00
37202;BME280;37799;52.390;6.136;2023-10-13T11:57:58;100181.06;;;21.25;100.00
37202;BME280;37799;52.390;6.136;2023-10-13T12:00:24;100165.00;;;21.39;100.00
37202;BME280;37799;52.390;6.136;2023-10-13T12:03:09;100167.78;;;21.26;100.00
37202;BME280;37799;52.390;6.136;2023-10-13T12:05:53;100159.63;;;21.29;100.00
37202;BME280;37799;52.390;6.136;2023-10-13T12:08:43;100148.97;;;21.31;100.00
37202;BME280;37799;52.390;6.136;2023-10-13T12:11:15;100150.88;;;21.40;100.00
37202;BME280;37799;52.390;6.136;2023-10-13T12:13:56;100145.78;;;21.48;100.00
37202;BME280;37799;52.390;6.136;2023-10-13T12:16:21;100142.72;;;21.43;100.00
37202;BME280;37799;52.390;6.136;2023-10-13T12:18:47;100142.25;;;21.38;100.00
37202;BME280;37799;52.390;6.136;2023-10-13T12:21:21;100156.00;;;21.41;100.00
37202;BME280;37799;52.390;6.136;2023-10-13T12:23:47;100145.56;;;21.51;100.00
37202;BME280;37799;52.390;6.136;2023-10-13T12:26:12;100158.66;;;21.41;100.00
37202;BME280;37799;52.390;6.136;2023-10-13T12:29:00;100186.75;;;21.52;100.00
37202;BME280;37799;52.390;6.136;2023-10-13T12:31:32;100169.22;;;21.62;100.00
37202;BME280;37799;52.390;6.136;2023-10-13T12:33:58;100162.72;;;21.66;100.00
37202;BME280;37799;52.390;6.136;2023-10-13T12:36:32;100170.63;;;21.66;100.00
37202;BME280;37799;52.390;6.136;2023-10-13T12:39:06;100164.19;;;21.59;100.00
37202;BME280;37799;52.390;6.136;2023-10-13T12:41:32;100178.66;;;21.33;100.00
37202;BME280;37799;52.390;6.136;2023-10-13T12:44:15;100173.75;;;21.39;100.00
37202;BME280;37799;52.390;6.136;2023-10-13T12:46:59;100171.47;;;21.35;100.00
37202;BME280;37799;52.390;6.136;2023-10-13T12:49:43;100151.56;;;21.42;100.00
37202;BME280;37799;52.390;6.136;2023-10-13T12:52:17;100164.22;;;21.48;100.00
37202;BME280;37799;52.390;6.136;2023-10-13T12:54:46;100159.41;;;21.64;100.00
37202;BME280;37799;52.390;6.136;2023-10-13T12:57:15;100150.78;;;21.62;100.00
37202;BME280;37799;52.390;6.136;2023-10-13T12:59:41;100146.16;;;21.75;100.00
37202;BME280;37799;52.390;6.136;2023-10-13T13:02:07;100143.28;;;21.78;100.00
37202;BME280;37799;52.390;6.136;2023-10-13T13:04:39;100147.31;;;21.83;100.00
37202;BME280;37799;52.390;6.136;2023-10-13T13:07:09;100152.09;;;21.89;100.00
37202;BME280;37799;52.390;6.136;2023-10-13T13:09:42;100157.09;;;21.92;100.00
37202;BME280;37799;52.390;6.136;2023-10-13T13:12:07;100150.53;;;21.65;100.00
37202;BME280;37799;52.390;6.136;2023-10-13T13:14:33;100169.28;;;21.72;100.00
37202;BME280;37799;52.390;6.136;2023-10-13T13:17:00;100174.41;;;21.73;100.00
37202;BME280;37799;52.390;6.136;2023-10-13T13:19:36;100167.59;;;21.50;100.00
37202;BME280;37799;52.390;6.136;2023-10-13T13:22:04;100176.94;;;21.43;100.00
37202;BME280;37799;52.390;6.136;2023-10-13T13:24:29;100182.94;;;21.45;100.00
37202;BME280;37799;52.390;6.136;2023-10-13T13:26:56;100176.72;;;21.35;100.00
37202;BME280;37799;52.390;6.136;2023-10-13T13:29:22;100166.13;;;21.25;100.00
37202;BME280;37799;52.390;6.136;2023-10-13T13:31:47;100175.56;;;21.28;100.00